Great Bend, KS

7:53 AM CDT on October 02, 2014 (GMT -0500)
Great Bend Municipal | Change Station
CLOSE
Current Station
Airport
Location: Great Bend,
Elevation: 1886 ft
Nearby Weather Stations

Elev 1886 ft 38.34 °N, 98.86 °W | Updated 18 minutes ago

Overcast
Overcast
55 °F
Feels Like 55 °F
N
21
Wind Variable Wind from North
Gusts 26 mph

Today
High -- | Low -- °F
--% Chance of Precip.
Yesterday
High -- | Low -- °F
Precip. -- in
7:31 AM 7:16 PM
First Quarter, 58% visible
Pressure 29.86 in
Visibility 10.0 miles
Clouds Overcast 5500 ft
Dew Point 50 °F
Humidity 82%
Rainfall 0.02 in
Snow Depth Not available.
UV 0 out of 12
Pollen 3.50 out of 12
Air Quality Not available.
Flu Activity Not available.
METAR KGBD 021235Z AUTO 36018G23KT 10SM OVC055 13/10 A2986 RMK AO1

More Conditions Fewer Conditions

Pressure 29.86 in
Visibility 10.0 miles
Clouds Overcast 5500 ft
Dew Point 50 °F
Humidity 82%
Rainfall 0.02 in
Snow Depth Not available.
UV 0 out of 12
Pollen 3.50 out of 12
Air Quality Not available.
Flu Activity Not available.
METAR KGBD 021235Z AUTO 36018G23KT 10SM OVC055 13/10 A2986 RMK AO1

More Conditions Fewer Conditions

10-Day Weather Forecast

Almanac

Astronomy

Oct. 02, 2014 Rise Set
Actual Time 7:31 AM CDT 7:16 PM CDT
Civil Twilight 7:05 AM CDT 7:42 PM CDT
Nautical Twilight 6:34 AM CDT 8:13 PM CDT
Astronomical Twilight 6:03 AM CDT 8:44 PM CDT
Moon 3:19 PM CDT 12:54 AM CDT
Length of Visible Light 12h 37m
Length of Day
11h 44m
Tomorrow will be 2m 27s shorter.
First Quarter, 58% of the Moon is Illuminated
Today
First Quarter
Oct 8
Full
Oct 15
Last Quarter
Oct 23
New
Oct 30
First Quarter

Today's Extremes

State Highs State Lows

Community

WunderPhotos

Upload Photos

1,758,226 photos uploaded!

WunderBlogs® & News

By Dr. Jeff Masters
Director of Meteorology, Weather Underground
By Kari Strenfel
Meteorologist, Weather Underground
By Christopher C. Burt
Weather Historian, Weather Underground
October 2, 2014
October 2, 2014
October 2, 2014

Nearby

Snow Depth

Station Depth Elevation
No new snow has been reported.

Earthquake Activity

City Distance Mag. Time & Date
Medford, Oklahoma 121 miles 3.6 1:18 PM CDT
2014-10-01
Harper, Kansas 95 miles 3.3 1:11 AM CDT
2014-10-01
Medford, Oklahoma 118 miles 2.5 10:49 PM CDT
2014-09-30
Medford, Oklahoma 118 miles 2.8 8:30 PM CDT
2014-09-30
Minimum magnitude displayed is 2.5.

Coastal Water Temperatures

Place Temperature
No Stations Reporting

Nearby Weather Stations